sensor_id;sensor_type;location;lat;lon;timestamp;temperature;humidity
1025;DHT22;501;48.214;11.350;2023-04-15T00:01:08;7.80;53.60
1025;DHT22;501;48.214;11.350;2023-04-15T00:03:34;7.80;53.70
1025;DHT22;501;48.214;11.350;2023-04-15T00:06:00;7.70;53.80
1025;DHT22;501;48.214;11.350;2023-04-15T00:08:26;7.70;53.90
1025;DHT22;501;48.214;11.350;2023-04-15T00:10:52;7.70;54.20
1025;DHT22;501;48.214;11.350;2023-04-15T00:13:17;7.60;54.20
1025;DHT22;501;48.214;11.350;2023-04-15T00:15:43;7.60;54.10
1025;DHT22;501;48.214;11.350;2023-04-15T00:18:09;7.60;53.90
1025;DHT22;501;48.214;11.350;2023-04-15T00:20:35;7.60;54.50
1025;DHT22;501;48.214;11.350;2023-04-15T00:23:01;7.60;54.70
1025;DHT22;501;48.214;11.350;2023-04-15T00:25:28;7.60;55.00
1025;DHT22;501;48.214;11.350;2023-04-15T00:27:53;7.60;54.70
1025;DHT22;501;48.214;11.350;2023-04-15T00:30:19;7.60;55.20
1025;DHT22;501;48.214;11.350;2023-04-15T00:32:45;7.50;55.40
1025;DHT22;501;48.214;11.350;2023-04-15T00:35:11;7.50;54.80
1025;DHT22;501;48.214;11.350;2023-04-15T00:37:37;7.50;55.20
1025;DHT22;501;48.214;11.350;2023-04-15T00:40:03;7.40;55.50
1025;DHT22;501;48.214;11.350;2023-04-15T00:42:30;7.50;56.00
1025;DHT22;501;48.214;11.350;2023-04-15T00:44:56;7.50;56.10
1025;DHT22;501;48.214;11.350;2023-04-15T00:47:22;7.50;56.10
1025;DHT22;501;48.214;11.350;2023-04-15T00:49:47;7.40;55.90
1025;DHT22;501;48.214;11.350;2023-04-15T00:52:13;7.40;56.40
1025;DHT22;501;48.214;11.350;2023-04-15T00:54:39;7.40;55.60
1025;DHT22;501;48.214;11.350;2023-04-15T00:57:05;7.40;55.80
1025;DHT22;501;48.214;11.350;2023-04-15T00:59:32;7.40;56.30
1025;DHT22;501;48.214;11.350;2023-04-15T01:01:58;7.40;56.30
1025;DHT22;501;48.214;11.350;2023-04-15T01:04:24;7.30;56.00
1025;DHT22;501;48.214;11.350;2023-04-15T01:07:13;7.40;56.30
1025;DHT22;501;48.214;11.350;2023-04-15T01:09:39;7.30;56.20
1025;DHT22;501;48.214;11.350;2023-04-15T01:12:05;7.20;56.60
1025;DHT22;501;48.214;11.350;2023-04-15T01:14:32;7.20;56.80
1025;DHT22;501;48.214;11.350;2023-04-15T01:16:58;7.20;57.00
1025;DHT22;501;48.214;11.350;2023-04-15T01:19:24;7.10;56.90
1025;DHT22;501;48.214;11.350;2023-04-15T01:21:50;7.10;56.60
1025;DHT22;501;48.214;11.350;2023-04-15T01:24:17;7.10;56.90
1025;DHT22;501;48.214;11.350;2023-04-15T01:26:44;7.00;57.40
1025;DHT22;501;48.214;11.350;2023-04-15T01:29:10;7.00;58.00
1025;DHT22;501;48.214;11.350;2023-04-15T01:31:36;7.00;58.10
1025;DHT22;501;48.214;11.350;2023-04-15T01:34:02;7.10;57.80
1025;DHT22;501;48.214;11.350;2023-04-15T01:36:27;7.10;57.90
1025;DHT22;501;48.214;11.350;2023-04-15T01:38:55;7.10;57.30
1025;DHT22;501;48.214;11.350;2023-04-15T01:41:27;7.10;57.60
1025;DHT22;501;48.214;11.350;2023-04-15T01:43:53;7.10;57.00
1025;DHT22;501;48.214;11.350;2023-04-15T01:46:19;7.10;56.70
1025;DHT22;501;48.214;11.350;2023-04-15T01:48:45;7.10;56.90
1025;DHT22;501;48.214;11.350;2023-04-15T01:51:11;7.10;56.50
1025;DHT22;501;48.214;11.350;2023-04-15T01:53:38;7.10;56.10
1025;DHT22;501;48.214;11.350;2023-04-15T01:56:04;7.10;56.10
1025;DHT22;501;48.214;11.350;2023-04-15T01:58:29;7.10;56.40
1025;DHT22;501;48.214;11.350;2023-04-15T02:00:55;7.10;56.00
1025;DHT22;501;48.214;11.350;2023-04-15T02:03:21;7.10;56.00
1025;DHT22;501;48.214;11.350;2023-04-15T02:05:47;7.10;56.10
1025;DHT22;501;48.214;11.350;2023-04-15T02:08:13;7.10;56.10
1025;DHT22;501;48.214;11.350;2023-04-15T02:10:39;7.10;56.00
1025;DHT22;501;48.214;11.350;2023-04-15T02:13:04;7.10;56.00
1025;DHT22;501;48.214;11.350;2023-04-15T02:15:30;7.10;56.00
1025;DHT22;501;48.214;11.350;2023-04-15T02:17:56;7.10;56.00
1025;DHT22;501;48.214;11.350;2023-04-15T02:20:23;7.10;56.00
1025;DHT22;501;48.214;11.350;2023-04-15T02:22:49;7.10;56.00
1025;DHT22;501;48.214;11.350;2023-04-15T02:25:15;7.10;55.70
1025;DHT22;501;48.214;11.350;2023-04-15T02:27:44;7.10;55.40
1025;DHT22;501;48.214;11.350;2023-04-15T02:30:10;7.10;55.40
1025;DHT22;501;48.214;11.350;2023-04-15T02:32:36;7.10;55.10
1025;DHT22;501;48.214;11.350;2023-04-15T02:35:06;7.00;55.20
1025;DHT22;501;48.214;11.350;2023-04-15T02:37:34;7.00;55.70
1025;DHT22;501;48.214;11.350;2023-04-15T02:40:08;7.00;55.70
1025;DHT22;501;48.214;11.350;2023-04-15T02:42:41;7.00;55.90
1025;DHT22;501;48.214;11.350;2023-04-15T02:45:07;7.00;55.90
1025;DHT22;501;48.214;11.350;2023-04-15T02:47:34;7.00;55.20
1025;DHT22;501;48.214;11.350;2023-04-15T02:50:02;7.00;55.20
1025;DHT22;501;48.214;11.350;2023-04-15T02:52:27;7.00;54.80
1025;DHT22;501;48.214;11.350;2023-04-15T02:54:53;7.00;54.50
1025;DHT22;501;48.214;11.350;2023-04-15T02:57:25;6.90;54.70
1025;DHT22;501;48.214;11.350;2023-04-15T02:59:51;6.90;54.80
1025;DHT22;501;48.214;11.350;2023-04-15T03:02:17;6.90;54.90
1025;DHT22;501;48.214;11.350;2023-04-15T03:04:42;6.80;55.70
1025;DHT22;501;48.214;11.350;2023-04-15T03:07:08;6.80;55.20
1025;DHT22;501;48.214;11.350;2023-04-15T03:09:33;6.80;54.20
1025;DHT22;501;48.214;11.350;2023-04-15T03:11:59;6.80;55.20
1025;DHT22;501;48.214;11.350;2023-04-15T03:14:25;6.80;55.80
1025;DHT22;501;48.214;11.350;2023-04-15T03:16:51;6.80;54.20
1025;DHT22;501;48.214;11.350;2023-04-15T03:19:17;6.80;55.10
1025;DHT22;501;48.214;11.350;2023-04-15T03:21:42;6.80;55.60
1025;DHT22;501;48.214;11.350;2023-04-15T03:24:08;6.80;54.80
1025;DHT22;501;48.214;11.350;2023-04-15T03:26:33;6.70;55.00
1025;DHT22;501;48.214;11.350;2023-04-15T03:28:59;6.70;54.40
1025;DHT22;501;48.214;11.350;2023-04-15T03:31:25;6.70;54.80
1025;DHT22;501;48.214;11.350;2023-04-15T03:33:51;6.60;55.10
1025;DHT22;501;48.214;11.350;2023-04-15T03:36:16;6.70;55.50
1025;DHT22;501;48.214;11.350;2023-04-15T03:38:42;6.70;55.00
1025;DHT22;501;48.214;11.350;2023-04-15T03:41:08;6.60;53.90
1025;DHT22;501;48.214;11.350;2023-04-15T03:43:34;6.70;54.60
1025;DHT22;501;48.214;11.350;2023-04-15T03:46:00;6.60;54.00
1025;DHT22;501;48.214;11.350;2023-04-15T03:48:25;6.60;54.50
1025;DHT22;501;48.214;11.350;2023-04-15T03:50:51;6.70;54.80
1025;DHT22;501;48.214;11.350;2023-04-15T03:53:17;6.60;54.40
1025;DHT22;501;48.214;11.350;2023-04-15T03:55:42;6.60;53.20
1025;DHT22;501;48.214;11.350;2023-04-15T03:58:09;6.60;54.20
1025;DHT22;501;48.214;11.350;2023-04-15T04:00:37;6.60;54.20
1025;DHT22;501;48.214;11.350;2023-04-15T04:03:03;6.60;54.00
1025;DHT22;501;48.214;11.350;2023-04-15T04:05:29;6.60;53.90
1025;DHT22;501;48.214;11.350;2023-04-15T04:07:54;6.60;54.20
1025;DHT22;501;48.214;11.350;2023-04-15T04:10:20;6.60;52.30
1025;DHT22;501;48.214;11.350;2023-04-15T04:12:46;6.60;52.50
1025;DHT22;501;48.214;11.350;2023-04-15T04:15:12;6.60;53.10
1025;DHT22;501;48.214;11.350;2023-04-15T04:17:37;6.60;53.10
1025;DHT22;501;48.214;11.350;2023-04-15T04:20:03;6.60;52.80
1025;DHT22;501;48.214;11.350;2023-04-15T04:22:30;6.60;53.00
1025;DHT22;501;48.214;11.350;2023-04-15T04:24:55;6.60;53.10
1025;DHT22;501;48.214;11.350;2023-04-15T04:27:23;6.60;52.60
1025;DHT22;501;48.214;11.350;2023-04-15T04:29:49;6.60;53.40
1025;DHT22;501;48.214;11.350;2023-04-15T04:32:15;6.60;52.40
1025;DHT22;501;48.214;11.350;2023-04-15T04:34:40;6.60;51.90
1025;DHT22;501;48.214;11.350;2023-04-15T04:37:06;6.60;52.40
1025;DHT22;501;48.214;11.350;2023-04-15T04:39:31;6.60;52.70
1025;DHT22;501;48.214;11.350;2023-04-15T04:41:57;6.60;53.40
1025;DHT22;501;48.214;11.350;2023-04-15T04:44:23;6.60;53.20
1025;DHT22;501;48.214;11.350;2023-04-15T04:46:48;6.60;52.80
1025;DHT22;501;48.214;11.350;2023-04-15T04:49:14;6.60;53.10
1025;DHT22;501;48.214;11.350;2023-04-15T04:51:39;6.70;52.90
1025;DHT22;501;48.214;11.350;2023-04-15T04:54:05;6.60;52.80
1025;DHT22;501;48.214;11.350;2023-04-15T04:56:31;6.60;52.80
1025;DHT22;501;48.214;11.350;2023-04-15T04:58:58;6.70;52.40
1025;DHT22;501;48.214;11.350;2023-04-15T05:01:24;6.60;51.40
1025;DHT22;501;48.214;11.350;2023-04-15T05:03:51;6.70;52.20
1025;DHT22;501;48.214;11.350;2023-04-15T05:06:17;6.60;52.00
1025;DHT22;501;48.214;11.350;2023-04-15T05:08:43;6.60;51.20
1025;DHT22;501;48.214;11.350;2023-04-15T05:11:08;6.50;51.30
1025;DHT22;501;48.214;11.350;2023-04-15T05:13:34;6.50;51.70
1025;DHT22;501;48.214;11.350;2023-04-15T05:16:03;6.50;51.00
1025;DHT22;501;48.214;11.350;2023-04-15T05:18:29;6.50;50.70
1025;DHT22;501;48.214;11.350;2023-04-15T05:20:55;6.40;49.10
1025;DHT22;501;48.214;11.350;2023-04-15T05:23:21;6.40;48.00
1025;DHT22;501;48.214;11.350;2023-04-15T05:25:46;6.40;48.00
1025;DHT22;501;48.214;11.350;2023-04-15T05:28:12;6.30;46.80
1025;DHT22;501;48.214;11.350;2023-04-15T05:30:38;6.30;48.00
1025;DHT22;501;48.214;11.350;2023-04-15T05:33:03;6.20;47.40
1025;DHT22;501;48.214;11.350;2023-04-15T05:35:29;6.30;48.00
1025;DHT22;501;48.214;11.350;2023-04-15T05:37:55;6.20;46.70
1025;DHT22;501;48.214;11.350;2023-04-15T05:40:20;6.30;46.80
1025;DHT22;501;48.214;11.350;2023-04-15T05:42:46;6.30;46.10
1025;DHT22;501;48.214;11.350;2023-04-15T05:45:12;6.20;46.70
1025;DHT22;501;48.214;11.350;2023-04-15T05:47:37;6.20;46.50
1025;DHT22;501;48.214;11.350;2023-04-15T05:50:04;6.20;46.70
1025;DHT22;501;48.214;11.350;2023-04-15T05:52:30;6.30;46.80
1025;DHT22;501;48.214;11.350;2023-04-15T05:54:56;6.30;46.80
1025;DHT22;501;48.214;11.350;2023-04-15T05:57:22;6.30;46.80
1025;DHT22;501;48.214;11.350;2023-04-15T05:59:47;6.30;46.80
1025;DHT22;501;48.214;11.350;2023-04-15T06:02:13;6.40;46.90
1025;DHT22;501;48.214;11.350;2023-04-15T06:04:39;6.40;46.90
1025;DHT22;501;48.214;11.350;2023-04-15T06:07:05;6.40;46.90
1025;DHT22;501;48.214;11.350;2023-04-15T06:09:31;6.40;46.40
1025;DHT22;501;48.214;11.350;2023-04-15T06:11:58;6.50;47.00
1025;DHT22;501;48.214;11.350;2023-04-15T06:14:23;6.50;45.30
1025;DHT22;501;48.214;11.350;2023-04-15T06:16:49;6.50;46.30
1025;DHT22;501;48.214;11.350;2023-04-15T06:19:15;6.50;46.60
1025;DHT22;501;48.214;11.350;2023-04-15T06:21:40;6.50;46.10
1025;DHT22;501;48.214;11.350;2023-04-15T06:24:06;6.60;47.00
1025;DHT22;501;48.214;11.350;2023-04-15T06:26:32;6.60;45.70
1025;DHT22;501;48.214;11.350;2023-04-15T06:28:57;6.70;45.60
1025;DHT22;501;48.214;11.350;2023-04-15T06:31:23;6.70;45.50
1025;DHT22;501;48.214;11.350;2023-04-15T06:33:48;6.70;44.80
1025;DHT22;501;48.214;11.350;2023-04-15T06:36:14;6.80;45.60
1025;DHT22;501;48.214;11.350;2023-04-15T06:38:40;6.80;45.50
1025;DHT22;501;48.214;11.350;2023-04-15T06:41:05;6.80;44.30
1025;DHT22;501;48.214;11.350;2023-04-15T06:43:31;6.90;43.00
1025;DHT22;501;48.214;11.350;2023-04-15T06:45:57;6.90;44.30
1025;DHT22;501;48.214;11.350;2023-04-15T06:48:23;6.90;44.60
1025;DHT22;501;48.214;11.350;2023-04-15T06:50:49;6.90;43.50
1025;DHT22;501;48.214;11.350;2023-04-15T06:53:15;7.00;42.90
1025;DHT22;501;48.214;11.350;2023-04-15T06:55:41;7.10;42.50
1025;DHT22;501;48.214;11.350;2023-04-15T06:58:06;7.10;41.50
1025;DHT22;501;48.214;11.350;2023-04-15T07:00:32;7.20;42.80
1025;DHT22;501;48.214;11.350;2023-04-15T07:02:59;7.20;42.30
1025;DHT22;501;48.214;11.350;2023-04-15T07:05:30;7.20;40.60
1025;DHT22;501;48.214;11.350;2023-04-15T07:07:56;7.20;40.20
1025;DHT22;501;48.214;11.350;2023-04-15T07:10:22;7.30;40.50
1025;DHT22;501;48.214;11.350;2023-04-15T07:12:48;7.30;41.40
1025;DHT22;501;48.214;11.350;2023-04-15T07:15:15;7.40;39.40
1025;DHT22;501;48.214;11.350;2023-04-15T07:17:41;7.40;39.90
1025;DHT22;501;48.214;11.350;2023-04-15T07:20:08;7.50;39.40
1025;DHT22;501;48.214;11.350;2023-04-15T07:22:33;7.40;38.90
1025;DHT22;501;48.214;11.350;2023-04-15T07:24:59;7.40;38.30
1025;DHT22;501;48.214;11.350;2023-04-15T07:27:25;7.40;38.90
1025;DHT22;501;48.214;11.350;2023-04-15T07:29:51;7.50;39.00
1025;DHT22;501;48.214;11.350;2023-04-15T07:32:17;7.60;39.40
1025;DHT22;501;48.214;11.350;2023-04-15T07:34:43;7.70;39.20
1025;DHT22;501;48.214;11.350;2023-04-15T07:37:09;7.70;39.20
1025;DHT22;501;48.214;11.350;2023-04-15T07:39:35;7.80;39.50
1025;DHT22;501;48.214;11.350;2023-04-15T07:42:01;7.90;37.80
1025;DHT22;501;48.214;11.350;2023-04-15T07:44:27;8.00;38.40
1025;DHT22;501;48.214;11.350;2023-04-15T07:46:52;8.10;36.50
1025;DHT22;501;48.214;11.350;2023-04-15T07:49:18;8.10;37.80
1025;DHT22;501;48.214;11.350;2023-04-15T07:51:45;8.30;37.40
1025;DHT22;501;48.214;11.350;2023-04-15T07:54:11;8.30;38.20
1025;DHT22;501;48.214;11.350;2023-04-15T07:56:37;8.50;37.70
1025;DHT22;501;48.214;11.350;2023-04-15T07:59:02;8.60;37.80
1025;DHT22;501;48.214;11.350;2023-04-15T08:01:30;8.70;36.60
1025;DHT22;501;48.214;11.350;2023-04-15T08:03:56;8.80;36.50
1025;DHT22;501;48.214;11.350;2023-04-15T08:06:22;8.90;37.20
1025;DHT22;501;48.214;11.350;2023-04-15T08:08:48;9.00;36.70
1025;DHT22;501;48.214;11.350;2023-04-15T08:11:13;9.10;35.50
1025;DHT22;501;48.214;11.350;2023-04-15T08:13:39;9.20;35.50
1025;DHT22;501;48.214;11.350;2023-04-15T08:16:19;9.20;34.50
1025;DHT22;501;48.214;11.350;2023-04-15T08:18:51;9.30;34.80
1025;DHT22;501;48.214;11.350;2023-04-15T08:21:17;9.30;34.00
1025;DHT22;501;48.214;11.350;2023-04-15T08:23:45;9.40;34.60
1025;DHT22;501;48.214;11.350;2023-04-15T08:26:11;9.50;33.80
1025;DHT22;501;48.214;11.350;2023-04-15T08:28:39;9.50;33.80
1025;DHT22;501;48.214;11.350;2023-04-15T08:31:05;9.60;33.80
1025;DHT22;501;48.214;11.350;2023-04-15T08:33:31;9.60;33.40
1025;DHT22;501;48.214;11.350;2023-04-15T08:35:56;9.60;33.90
1025;DHT22;501;48.214;11.350;2023-04-15T08:38:23;9.60;35.20
1025;DHT22;501;48.214;11.350;2023-04-15T08:40:48;9.70;35.50
1025;DHT22;501;48.214;11.350;2023-04-15T08:43:20;9.70;33.80
1025;DHT22;501;48.214;11.350;2023-04-15T08:45:49;9.80;35.10
1025;DHT22;501;48.214;11.350;2023-04-15T08:48:17;9.90;35.00
1025;DHT22;501;48.214;11.350;2023-04-15T08:50:43;9.90;35.40
1025;DHT22;501;48.214;11.350;2023-04-15T08:53:10;9.90;34.10
1025;DHT22;501;48.214;11.350;2023-04-15T08:55:42;10.00;34.40
1025;DHT22;501;48.214;11.350;2023-04-15T08:58:09;10.00;33.30
1025;DHT22;501;48.214;11.350;2023-04-15T09:00:36;10.00;34.10
1025;DHT22;501;48.214;11.350;2023-04-15T09:03:04;10.00;34.00
1025;DHT22;501;48.214;11.350;2023-04-15T09:05:37;10.00;32.90
1025;DHT22;501;48.214;11.350;2023-04-15T09:08:03;10.00;34.10
1025;DHT22;501;48.214;11.350;2023-04-15T09:10:30;10.00;32.30
1025;DHT22;501;48.214;11.350;2023-04-15T09:12:56;10.00;33.10
1025;DHT22;501;48.214;11.350;2023-04-15T09:15:24;10.00;32.60
1025;DHT22;501;48.214;11.350;2023-04-15T09:17:54;10.00;32.90
1025;DHT22;501;48.214;11.350;2023-04-15T09:20:21;10.00;33.00
1025;DHT22;501;48.214;11.350;2023-04-15T09:22:47;10.10;32.60
1025;DHT22;501;48.214;11.350;2023-04-15T09:27:56;10.00;32.60
1025;DHT22;501;48.214;11.350;2023-04-15T09:30:22;10.00;32.90
1025;DHT22;501;48.214;11.350;2023-04-15T09:32:56;10.10;33.90
1025;DHT22;501;48.214;11.350;2023-04-15T09:35:23;10.20;32.80
1025;DHT22;501;48.214;11.350;2023-04-15T09:37:49;10.30;32.80
1025;DHT22;501;48.214;11.350;2023-04-15T09:40:36;10.40;32.90
1025;DHT22;501;48.214;11.350;2023-04-15T09:43:06;10.50;32.50
1025;DHT22;501;48.214;11.350;2023-04-15T09:45:33;10.50;32.70
1025;DHT22;501;48.214;11.350;2023-04-15T09:48:17;10.60;33.30
1025;DHT22;501;48.214;11.350;2023-04-15T09:50:45;10.70;31.70
1025;DHT22;501;48.214;11.350;2023-04-15T09:53:14;10.80;31.70
1025;DHT22;501;48.214;11.350;2023-04-15T09:58:27;10.70;30.00
1025;DHT22;501;48.214;11.350;2023-04-15T10:00:55;10.70;30.20
1025;DHT22;501;48.214;11.350;2023-04-15T10:03:32;10.70;30.10
1025;DHT22;501;48.214;11.350;2023-04-15T10:05:59;10.70;30.00
1025;DHT22;501;48.214;11.350;2023-04-15T10:08:31;10.70;30.80
1025;DHT22;501;48.214;11.350;2023-04-15T10:10:57;10.70;30.00
1025;DHT22;501;48.214;11.350;2023-04-15T10:13:25;10.70;30.30
1025;DHT22;501;48.214;11.350;2023-04-15T10:15:56;10.70;30.40
1025;DHT22;501;48.214;11.350;2023-04-15T10:18:25;10.70;31.30
1025;DHT22;501;48.214;11.350;2023-04-15T10:20:51;10.60;30.20
1025;DHT22;501;48.214;11.350;2023-04-15T10:23:18;10.60;30.70
1025;DHT22;501;48.214;11.350;2023-04-15T10:25:45;10.70;31.70
1025;DHT22;501;48.214;11.350;2023-04-15T10:28:11;10.70;31.70
1025;DHT22;501;48.214;11.350;2023-04-15T10:30:39;10.80;30.90
1025;DHT22;501;48.214;11.350;2023-04-15T10:33:05;10.90;31.20
1025;DHT22;501;48.214;11.350;2023-04-15T10:35:32;11.00;30.80
1025;DHT22;501;48.214;11.350;2023-04-15T10:37:59;11.00;30.70
1025;DHT22;501;48.214;11.350;2023-04-15T10:40:26;11.10;31.60
1025;DHT22;501;48.214;11.350;2023-04-15T10:42:57;11.10;31.00
1025;DHT22;501;48.214;11.350;2023-04-15T10:45:32;11.20;30.00
1025;DHT22;501;48.214;11.350;2023-04-15T10:48:01;11.20;29.30
1025;DHT22;501;48.214;11.350;2023-04-15T10:50:27;11.20;29.50
1025;DHT22;501;48.214;11.350;2023-04-15T10:52:55;11.10;29.10
1025;DHT22;501;48.214;11.350;2023-04-15T10:55:22;11.10;30.00
1025;DHT22;501;48.214;11.350;2023-04-15T10:57:59;11.10;29.70
1025;DHT22;501;48.214;11.350;2023-04-15T11:00:28;11.20;29.80
1025;DHT22;501;48.214;11.350;2023-04-15T11:02:56;11.20;28.90
1025;DHT22;501;48.214;11.350;2023-04-15T11:08:08;11.10;29.10
1025;DHT22;501;48.214;11.350;2023-04-15T11:13:04;10.90;29.50
1025;DHT22;501;48.214;11.350;2023-04-15T11:18:13;10.70;30.00
1025;DHT22;501;48.214;11.350;2023-04-15T11:20:41;10.70;31.70
1025;DHT22;501;48.214;11.350;2023-04-15T11:23:07;10.60;30.20
1025;DHT22;501;48.214;11.350;2023-04-15T11:25:34;10.60;30.40
1025;DHT22;501;48.214;11.350;2023-04-15T11:28:02;10.50;31.10
1025;DHT22;501;48.214;11.350;2023-04-15T11:30:31;10.50;31.50
1025;DHT22;501;48.214;11.350;2023-04-15T11:32:59;10.40;32.10
1025;DHT22;501;48.214;11.350;2023-04-15T11:35:25;10.40;31.50
1025;DHT22;501;48.214;11.350;2023-04-15T11:37:51;10.40;31.40
1025;DHT22;501;48.214;11.350;2023-04-15T11:40:22;10.40;31.40
1025;DHT22;501;48.214;11.350;2023-04-15T11:43:06;10.30;31.30
1025;DHT22;501;48.214;11.350;2023-04-15T11:45:32;10.30;31.50
1025;DHT22;501;48.214;11.350;2023-04-15T11:48:06;10.30;31.30
1025;DHT22;501;48.214;11.350;2023-04-15T11:50:32;10.20;30.50
1025;DHT22;501;48.214;11.350;2023-04-15T11:53:00;10.20;31.30
1025;DHT22;501;48.214;11.350;2023-04-15T11:55:26;10.20;32.20
1025;DHT22;501;48.214;11.350;2023-04-15T11:58:09;10.20;33.60
1025;DHT22;501;48.214;11.350;2023-04-15T12:00:36;10.20;32.90
1025;DHT22;501;48.214;11.350;2023-04-15T12:08:54;10.40;31.40
1025;DHT22;501;48.214;11.350;2023-04-15T12:11:27;10.50;30.20
1025;DHT22;501;48.214;11.350;2023-04-15T12:14:01;10.60;30.30
1025;DHT22;501;48.214;11.350;2023-04-15T12:16:27;10.60;31.60
1025;DHT22;501;48.214;11.350;2023-04-15T12:18:54;10.70;31.30
1025;DHT22;501;48.214;11.350;2023-04-15T12:21:27;10.70;31.70
1025;DHT22;501;48.214;11.350;2023-04-15T12:24:02;10.80;29.70
1025;DHT22;501;48.214;11.350;2023-04-15T12:26:30;10.90;30.40
1025;DHT22;501;48.214;11.350;2023-04-15T12:29:06;10.90;29.20
1025;DHT22;501;48.214;11.350;2023-04-15T12:31:34;11.00;29.90
1025;DHT22;501;48.214;11.350;2023-04-15T12:34:01;11.00;28.90
1025;DHT22;501;48.214;11.350;2023-04-15T12:36:28;11.10;27.90
1025;DHT22;501;48.214;11.350;2023-04-15T12:38:56;11.10;27.50
1025;DHT22;501;48.214;11.350;2023-04-15T12:41:22;11.00;26.60
1025;DHT22;501;48.214;11.350;2023-04-15T12:43:48;11.00;27.10
1025;DHT22;501;48.214;11.350;2023-04-15T12:46:14;10.90;26.40
1025;DHT22;501;48.214;11.350;2023-04-15T12:48:40;10.90;25.40
1025;DHT22;501;48.214;11.350;2023-04-15T12:51:06;10.80;25.50
1025;DHT22;501;48.214;11.350;2023-04-15T12:53:31;10.70;25.90
1025;DHT22;501;48.214;11.350;2023-04-15T12:55:57;10.60;25.90
1025;DHT22;501;48.214;11.350;2023-04-15T12:58:23;10.60;25.60
1025;DHT22;501;48.214;11.350;2023-04-15T13:00:49;10.50;25.50
1025;DHT22;501;48.214;11.350;2023-04-15T13:03:15;10.40;25.60
1025;DHT22;501;48.214;11.350;2023-04-15T13:05:41;10.30;26.00
1025;DHT22;501;48.214;11.350;2023-04-15T13:08:06;10.30;26.00
1025;DHT22;501;48.214;11.350;2023-04-15T13:10:33;10.20;27.00
1025;DHT22;501;48.214;11.350;2023-04-15T13:13:01;10.30;27.00
1025;DHT22;501;48.214;11.350;2023-04-15T13:15:29;10.20;27.00
1025;DHT22;501;48.214;11.350;2023-04-15T13:17:54;10.20;27.90
1025;DHT22;501;48.214;11.350;2023-04-15T13:20:20;10.20;27.40
1025;DHT22;501;48.214;11.350;2023-04-15T13:22:46;10.10;27.70
1025;DHT22;501;48.214;11.350;2023-04-15T13:25:12;10.00;27.90
1025;DHT22;501;48.214;11.350;2023-04-15T13:27:37;10.00;29.30
1025;DHT22;501;48.214;11.350;2023-04-15T13:30:04;9.90;30.00
1025;DHT22;501;48.214;11.350;2023-04-15T13:32:30;9.80;29.70
1025;DHT22;501;48.214;11.350;2023-04-15T13:34:55;9.80;29.90
1025;DHT22;501;48.214;11.350;2023-04-15T13:37:25;9.70;30.70
1025;DHT22;501;48.214;11.350;2023-04-15T13:39:52;9.70;31.30
1025;DHT22;501;48.214;11.350;2023-04-15T13:42:18;9.70;31.80
1025;DHT22;501;48.214;11.350;2023-04-15T13:44:44;9.60;31.70
1025;DHT22;501;48.214;11.350;2023-04-15T13:47:09;9.60;31.70
1025;DHT22;501;48.214;11.350;2023-04-15T13:49:35;9.60;31.70
1025;DHT22;501;48.214;11.350;2023-04-15T13:52:01;9.60;31.30
1025;DHT22;501;48.214;11.350;2023-04-15T13:54:26;9.60;30.70
1025;DHT22;501;48.214;11.350;2023-04-15T13:56:58;9.60;31.70
1025;DHT22;501;48.214;11.350;2023-04-15T13:59:24;9.60;31.70
1025;DHT22;501;48.214;11.350;2023-04-15T14:01:49;9.60;31.70
1025;DHT22;501;48.214;11.350;2023-04-15T14:04:15;9.60;30.40
1025;DHT22;501;48.214;11.350;2023-04-15T14:06:41;9.60;30.70
1025;DHT22;501;48.214;11.350;2023-04-15T14:09:06;9.60;31.20
1025;DHT22;501;48.214;11.350;2023-04-15T14:11:32;9.60;31.30
1025;DHT22;501;48.214;11.350;2023-04-15T14:13:59;9.60;30.90
1025;DHT22;501;48.214;11.350;2023-04-15T14:16:25;9.60;31.70
1025;DHT22;501;48.214;11.350;2023-04-15T14:18:51;9.60;31.70
1025;DHT22;501;48.214;11.350;2023-04-15T14:21:16;9.70;31.70
1025;DHT22;501;48.214;11.350;2023-04-15T14:23:42;9.70;31.80
1025;DHT22;501;48.214;11.350;2023-04-15T14:26:08;9.70;31.80
1025;DHT22;501;48.214;11.350;2023-04-15T14:28:33;9.80;31.50
1025;DHT22;501;48.214;11.350;2023-04-15T14:31:00;9.80;31.90
1025;DHT22;501;48.214;11.350;2023-04-15T14:33:25;9.90;31.40
1025;DHT22;501;48.214;11.350;2023-04-15T14:35:51;9.90;31.20
1025;DHT22;501;48.214;11.350;2023-04-15T14:38:17;9.90;31.40
1025;DHT22;501;48.214;11.350;2023-04-15T14:40:42;9.90;30.80
1025;DHT22;501;48.214;11.350;2023-04-15T14:43:09;9.90;30.80
1025;DHT22;501;48.214;11.350;2023-04-15T14:45:34;9.80;31.30
1025;DHT22;501;48.214;11.350;2023-04-15T14:48:00;9.80;31.80
1025;DHT22;501;48.214;11.350;2023-04-15T14:50:26;9.70;31.80
1025;DHT22;501;48.214;11.350;2023-04-15T14:52:52;9.60;31.70
1025;DHT22;501;48.214;11.350;2023-04-15T14:55:18;9.50;31.60
1025;DHT22;501;48.214;11.350;2023-04-15T14:57:43;9.40;33.30
1025;DHT22;501;48.214;11.350;2023-04-15T15:00:09;9.30;34.10
1025;DHT22;501;48.214;11.350;2023-04-15T15:02:36;9.20;35.20
1025;DHT22;501;48.214;11.350;2023-04-15T15:05:02;9.10;36.90
1025;DHT22;501;48.214;11.350;2023-04-15T15:07:28;9.00;37.80
1025;DHT22;501;48.214;11.350;2023-04-15T15:09:54;8.80;39.00
1025;DHT22;501;48.214;11.350;2023-04-15T15:12:20;8.80;40.10
1025;DHT22;501;48.214;11.350;2023-04-15T15:14:47;8.70;40.80
1025;DHT22;501;48.214;11.350;2023-04-15T15:17:13;8.60;41.10
1025;DHT22;501;48.214;11.350;2023-04-15T15:19:39;8.60;42.30
1025;DHT22;501;48.214;11.350;2023-04-15T15:22:05;8.60;42.60
1025;DHT22;501;48.214;11.350;2023-04-15T15:24:30;8.60;42.80
1025;DHT22;501;48.214;11.350;2023-04-15T15:26:56;8.50;42.20
1025;DHT22;501;48.214;11.350;2023-04-15T15:29:22;8.40;42.90
1025;DHT22;501;48.214;11.350;2023-04-15T15:31:48;8.40;44.90
1025;DHT22;501;48.214;11.350;2023-04-15T15:34:15;8.40;43.10
1025;DHT22;501;48.214;11.350;2023-04-15T15:36:40;8.40;42.70
1025;DHT22;501;48.214;11.350;2023-04-15T15:39:06;8.40;42.50
1025;DHT22;501;48.214;11.350;2023-04-15T15:41:32;8.40;41.70
1025;DHT22;501;48.214;11.350;2023-04-15T15:43:58;8.30;42.20
1025;DHT22;501;48.214;11.350;2023-04-15T15:46:25;8.30;43.00
1025;DHT22;501;48.214;11.350;2023-04-15T15:48:51;8.30;43.80
1025;DHT22;501;48.214;11.350;2023-04-15T15:51:16;8.30;45.30
1025;DHT22;501;48.214;11.350;2023-04-15T15:53:42;8.30;44.20
1025;DHT22;501;48.214;11.350;2023-04-15T15:56:09;8.30;45.70
1025;DHT22;501;48.214;11.350;2023-04-15T15:58:35;8.30;44.90
1025;DHT22;501;48.214;11.350;2023-04-15T16:01:01;8.30;45.40
1025;DHT22;501;48.214;11.350;2023-04-15T16:03:26;8.30;43.80
1025;DHT22;501;48.214;11.350;2023-04-15T16:05:52;8.30;43.90
1025;DHT22;501;48.214;11.350;2023-04-15T16:08:18;8.40;45.60
1025;DHT22;501;48.214;11.350;2023-04-15T16:10:44;8.40;44.00
1025;DHT22;501;48.214;11.350;2023-04-15T16:13:10;8.40;43.60
1025;DHT22;501;48.214;11.350;2023-04-15T16:15:36;8.50;44.00
1025;DHT22;501;48.214;11.350;2023-04-15T16:18:01;8.40;43.70
1025;DHT22;501;48.214;11.350;2023-04-15T16:20:27;8.40;44.20
1025;DHT22;501;48.214;11.350;2023-04-15T16:22:55;8.40;43.60
1025;DHT22;501;48.214;11.350;2023-04-15T16:25:21;8.40;44.00
1025;DHT22;501;48.214;11.350;2023-04-15T16:27:47;8.40;45.10
1025;DHT22;501;48.214;11.350;2023-04-15T16:30:12;8.40;43.30